GRZ573 Details

Departure: Unalaska Airport (PADU)
Arrival: Cold Bay Airport (PACD)
Route: DUT J115 CDB


Current Weather Information
PADU 230856Z AUTO 29017G23KT 10SM -RA OVC023 05/02 A2938 RMK AO2 PK WND 27026/0821 SLP954 P0002 60007 T00500022 400610039 53011
PACD 230853Z AUTO 31034G44KT 6SM RA BR SCT015 OVC025 06/04 A2893 RMK AO2 PK WND 31044/0852 SLP797 P0003 60011 T00560039 400780022 53012 TSNO